Time;durP1;ratioP1;P1;durP2;ratioP2;P2;SDS_P1;SDS_P2;PMS_P1;PMS_P2;Temp;Humidity;BMP_temperature;BMP_pressure;BME280_temperature;BME280_humidity;BME280_pressure;Samples;Min_cycle;Max_cycle;Signal;HPM_P1;HPM_P2
2021/01/12 00:02:18;;;;;;;31.88;17.48;;;;;;;;;;6302016;22;19999;-77
2021/01/12 00:04:44;;;;;;;30.77;17.35;;;;;;;;;;6330346;22;20010;-76
2021/01/12 00:07:11;;;;;;;32.30;16.92;;;;;;;;;;6331664;22;20010;-77
2021/01/12 00:09:37;;;;;;;30.30;17.17;;;;;;;;;;6301060;22;20007;-76
2021/01/12 00:12:03;;;;;;;30.92;17.42;;;;;;;;;;6331998;22;19999;-76
2021/01/12 00:14:32;;;;;;;31.52;16.55;;;;;;;;;;6303795;22;20007;-75
2021/01/12 00:16:59;;;;;;;37.33;17.65;;;;;;;;;;6331829;22;20066;-76
2021/01/12 00:19:25;;;;;;;32.25;17.08;;;;;;;;;;6302929;22;20060;-76
2021/01/12 00:21:51;;;;;;;35.53;17.55;;;;;;;;;;6303926;22;20007;-76
2021/01/12 00:24:17;;;;;;;32.60;17.42;;;;;;;;;;6330646;22;20745;-76
2021/01/12 00:26:43;;;;;;;33.03;17.00;;;;;;;;;;6303955;22;20006;-76
2021/01/12 00:29:09;;;;;;;32.65;17.10;;;;;;;;;;6303630;22;20007;-76
2021/01/12 00:31:40;;;;;;;34.13;18.13;;;;;;;;;;6331401;22;20076;-77
2021/01/12 00:34:07;;;;;;;30.88;16.27;;;;;;;;;;6305096;22;20014;-76
2021/01/12 00:36:33;;;;;;;31.02;17.05;;;;;;;;;;6333204;22;19999;-76
2021/01/12 00:38:59;;;;;;;29.48;16.33;;;;;;;;;;6332975;22;20001;-77
2021/01/12 00:41:25;;;;;;;31.67;16.92;;;;;;;;;;6333710;22;20066;-76
2021/01/12 00:43:51;;;;;;;32.92;17.33;;;;;;;;;;6333404;22;20006;-76
2021/01/12 00:46:17;;;;;;;30.20;16.77;;;;;;;;;;6332697;22;20002;-77
2021/01/12 00:48:43;;;;;;;31.08;17.40;;;;;;;;;;6333773;22;20643;-76
2021/01/12 00:51:09;;;;;;;30.48;16.02;;;;;;;;;;6333446;22;20014;-77
2021/01/12 00:53:35;;;;;;;30.60;16.80;;;;;;;;;;6305770;22;20014;-76
2021/01/12 00:56:01;;;;;;;29.13;15.45;;;;;;;;;;6305702;22;20006;-76
2021/01/12 00:58:27;;;;;;;31.02;15.73;;;;;;;;;;6306198;22;20014;-76
2021/01/12 01:00:53;;;;;;;32.63;15.85;;;;;;;;;;6333489;22;20044;-76
2021/01/12 01:03:19;;;;;;;31.00;16.63;;;;;;;;;;6305870;22;20002;-76
2021/01/12 01:05:45;;;;;;;27.25;14.88;;;;;;;;;;6303631;22;20089;-77
2021/01/12 01:08:11;;;;;;;27.88;15.45;;;;;;;;;;6304795;22;20408;-77
2021/01/12 01:10:38;;;;;;;30.10;15.25;;;;;;;;;;6333378;22;20002;-77
2021/01/12 01:13:04;;;;;;;27.38;15.30;;;;;;;;;;6305885;22;20003;-76
2021/01/12 01:15:30;;;;;;;27.02;14.15;;;;;;;;;;6332228;22;20105;-76
2021/01/12 01:17:56;;;;;;;26.08;15.02;;;;;;;;;;6333082;22;20431;-76
2021/01/12 01:20:22;;;;;;;24.42;13.52;;;;;;;;;;6332851;22;20049;-75
2021/01/12 01:22:47;;;;;;;25.30;13.73;;;;;;;;;;6332630;22;20511;-76
2021/01/12 01:25:14;;;;;;;26.92;14.88;;;;;;;;;;6304749;22;20007;-76
2021/01/12 01:27:40;;;;;;;24.48;13.20;;;;;;;;;;6333655;22;20002;-76
2021/01/12 01:30:06;;;;;;;23.55;13.13;;;;;;;;;;6331822;22;20017;-77
2021/01/12 01:32:32;;;;;;;26.95;14.07;;;;;;;;;;6332841;22;20049;-75
2021/01/12 01:34:58;;;;;;;22.38;13.00;;;;;;;;;;6332794;22;20097;-76
2021/01/12 01:37:24;;;;;;;24.40;12.25;;;;;;;;;;6332482;22;20029;-76
2021/01/12 01:39:50;;;;;;;24.17;13.50;;;;;;;;;;6333376;22;19999;-76
2021/01/12 01:42:16;;;;;;;21.60;12.82;;;;;;;;;;6305675;22;19999;-77
2021/01/12 01:44:42;;;;;;;23.52;12.80;;;;;;;;;;6304400;22;20007;-76
2021/01/12 01:47:08;;;;;;;20.77;12.10;;;;;;;;;;6333174;22;20331;-76
2021/01/12 01:49:34;;;;;;;23.33;12.35;;;;;;;;;;6305709;22;20006;-77
2021/01/12 01:52:01;;;;;;;21.33;12.13;;;;;;;;;;6332960;22;20006;-76
2021/01/12 01:54:28;;;;;;;21.98;12.65;;;;;;;;;;6332765;22;20087;-76
2021/01/12 01:56:54;;;;;;;21.85;12.45;;;;;;;;;;6333398;22;20003;-76
2021/01/12 01:59:20;;;;;;;20.98;11.38;;;;;;;;;;6331528;22;19999;-76
2021/01/12 02:01:46;;;;;;;21.95;11.50;;;;;;;;;;6333071;22;20023;-76
2021/01/12 02:04:12;;;;;;;21.85;12.07;;;;;;;;;;6330994;22;20003;-76
2021/01/12 02:06:39;;;;;;;18.60;11.13;;;;;;;;;;6333179;22;19999;-77
2021/01/12 02:09:08;;;;;;;23.48;11.73;;;;;;;;;;6331457;22;20086;-76
2021/01/12 02:11:40;;;;;;;19.27;10.48;;;;;;;;;;6333453;22;20363;-76
2021/01/12 02:14:09;;;;;;;19.98;11.20;;;;;;;;;;6332221;22;20386;-77
2021/01/12 02:16:35;;;;;;;22.80;11.52;;;;;;;;;;6324267;22;19998;-76
2021/01/12 02:19:01;;;;;;;20.02;11.07;;;;;;;;;;6332249;22;20003;-76
2021/01/12 02:21:28;;;;;;;19.30;11.32;;;;;;;;;;6332385;22;20019;-75
2021/01/12 02:23:55;;;;;;;19.27;11.10;;;;;;;;;;6330159;22;20014;-76
2021/01/12 02:26:22;;;;;;;16.65;9.20;;;;;;;;;;6332618;22;20299;-76
2021/01/12 02:28:48;;;;;;;16.75;8.80;;;;;;;;;;6332170;22;20015;-76
2021/01/12 02:34:19;;;;;;;19.40;10.40;;;;;;;;;;6316748;22;20021;-74
2021/01/12 02:36:46;;;;;;;17.00;9.45;;;;;;;;;;6330051;22;20003;-73
2021/01/12 02:39:13;;;;;;;16.70;7.50;;;;;;;;;;6329506;22;20473;-74
2021/01/12 02:41:39;;;;;;;17.50;9.57;;;;;;;;;;6327799;22;19995;-74
2021/01/12 02:44:05;;;;;;;18.08;9.27;;;;;;;;;;6331023;22;20282;-74
2021/01/12 02:46:31;;;;;;;15.88;8.43;;;;;;;;;;6330909;22;20430;-74
2021/01/12 02:48:57;;;;;;;18.63;9.52;;;;;;;;;;6328545;22;20312;-74
2021/01/12 02:51:23;;;;;;;17.77;9.40;;;;;;;;;;6330361;22;20002;-74
2021/01/12 02:53:49;;;;;;;15.68;8.88;;;;;;;;;;6329390;22;20010;-74
2021/01/12 02:56:22;;;;;;;18.02;9.75;;;;;;;;;;6328566;22;20148;-74
2021/01/12 02:58:48;;;;;;;17.13;9.00;;;;;;;;;;6331165;22;20022;-73
2021/01/12 03:01:14;;;;;;;14.40;8.20;;;;;;;;;;6328821;22;19999;-74
2021/01/12 03:03:40;;;;;;;14.57;8.50;;;;;;;;;;6332101;22;20010;-74
2021/01/12 03:06:06;;;;;;;15.57;8.88;;;;;;;;;;6333062;22;20003;-74
2021/01/12 03:08:32;;;;;;;19.58;9.45;;;;;;;;;;6333080;22;20480;-74
2021/01/12 03:10:58;;;;;;;15.05;8.65;;;;;;;;;;6333115;22;20002;-74
2021/01/12 03:13:24;;;;;;;15.75;8.93;;;;;;;;;;6334119;22;19999;-74
2021/01/12 03:15:50;;;;;;;14.68;7.97;;;;;;;;;;6334755;22;20450;-74
2021/01/12 03:18:16;;;;;;;10.73;5.78;;;;;;;;;;6332071;22;20010;-74
2021/01/12 03:20:42;;;;;;;16.90;8.07;;;;;;;;;;6334126;22;20427;-74
2021/01/12 03:23:08;;;;;;;14.18;7.72;;;;;;;;;;6332876;22;20021;-73
2021/01/12 03:25:34;;;;;;;15.07;8.35;;;;;;;;;;6332547;22;20003;-74
2021/01/12 03:28:00;;;;;;;13.82;6.43;;;;;;;;;;6332784;22;20205;-73
2021/01/12 03:30:26;;;;;;;13.80;6.45;;;;;;;;;;6333012;22;20022;-73
2021/01/12 03:32:53;;;;;;;16.75;8.80;;;;;;;;;;6333085;22;20006;-74
2021/01/12 03:35:19;;;;;;;14.80;6.93;;;;;;;;;;6334255;22;20026;-74
2021/01/12 03:37:45;;;;;;;16.08;7.93;;;;;;;;;;6306348;22;19999;-74
2021/01/12 03:40:12;;;;;;;16.98;8.27;;;;;;;;;;6333993;22;20003;-74
2021/01/12 03:42:38;;;;;;;15.48;7.80;;;;;;;;;;6332864;22;19999;-73
2021/01/12 03:45:05;;;;;;;17.77;9.02;;;;;;;;;;6306635;22;20007;-74
2021/01/12 03:47:31;;;;;;;14.43;7.03;;;;;;;;;;6306126;22;20019;-73
2021/01/12 03:49:57;;;;;;;19.15;9.98;;;;;;;;;;6334191;22;20617;-74
2021/01/12 03:52:23;;;;;;;14.82;7.63;;;;;;;;;;6305885;22;20070;-73
2021/01/12 03:54:49;;;;;;;12.55;6.53;;;;;;;;;;6306316;22;20007;-74
2021/01/12 03:57:15;;;;;;;12.73;6.68;;;;;;;;;;6306040;22;20400;-73
2021/01/12 03:59:41;;;;;;;16.38;8.55;;;;;;;;;;6306529;22;19998;-74
2021/01/12 04:02:07;;;;;;;14.10;7.13;;;;;;;;;;6304224;22;20037;-73
2021/01/12 04:04:33;;;;;;;17.30;7.68;;;;;;;;;;6302442;22;20490;-73
2021/01/12 04:06:59;;;;;;;15.43;7.47;;;;;;;;;;6332470;22;19995;-73
2021/01/12 04:09:25;;;;;;;18.13;8.77;;;;;;;;;;6306260;22;20026;-74
2021/01/12 04:11:51;;;;;;;16.45;8.18;;;;;;;;;;6302773;22;20005;-74
2021/01/12 04:14:17;;;;;;;17.70;8.13;;;;;;;;;;6304687;22;20010;-74
2021/01/12 04:16:43;;;;;;;18.48;9.68;;;;;;;;;;6305385;22;20006;-73
2021/01/12 04:19:09;;;;;;;16.55;9.60;;;;;;;;;;6304101;22;19995;-73
2021/01/12 04:21:35;;;;;;;14.20;7.50;;;;;;;;;;6303721;22;20990;-74
2021/01/12 04:24:01;;;;;;;13.82;6.78;;;;;;;;;;6332003;22;20455;-74
2021/01/12 04:26:27;;;;;;;17.85;9.70;;;;;;;;;;6304203;22;20003;-73
2021/01/12 04:28:53;;;;;;;16.85;9.73;;;;;;;;;;6305062;22;20098;-73
2021/01/12 04:31:19;;;;;;;16.13;7.35;;;;;;;;;;6331327;22;19999;-74
2021/01/12 04:33:45;;;;;;;17.50;9.43;;;;;;;;;;6305169;22;20006;-73
2021/01/12 04:36:11;;;;;;;18.27;10.13;;;;;;;;;;6332454;22;20384;-74
2021/01/12 04:38:37;;;;;;;14.75;7.80;;;;;;;;;;6331123;22;20003;-74
2021/01/12 04:41:03;;;;;;;16.08;7.70;;;;;;;;;;6329341;22;20010;-73
2021/01/12 04:43:29;;;;;;;18.38;9.65;;;;;;;;;;6332584;22;20025;-74
2021/01/12 04:45:55;;;;;;;18.52;9.88;;;;;;;;;;6330346;22;20661;-74
2021/01/12 04:48:21;;;;;;;18.38;9.70;;;;;;;;;;6330489;22;20109;-74
2021/01/12 04:50:47;;;;;;;15.27;7.30;;;;;;;;;;6329368;22;20014;-74
2021/01/12 04:53:13;;;;;;;16.38;8.93;;;;;;;;;;6330378;22;20025;-74
2021/01/12 04:55:43;;;;;;;19.17;10.05;;;;;;;;;;6331888;22;20702;-74
2021/01/12 04:58:09;;;;;;;18.35;9.95;;;;;;;;;;6330769;22;20470;-74
2021/01/12 05:00:37;;;;;;;20.23;9.82;;;;;;;;;;6330055;22;20006;-74
2021/01/12 05:03:09;;;;;;;20.13;9.48;;;;;;;;;;6329661;22;20291;-74
2021/01/12 05:05:37;;;;;;;19.80;10.95;;;;;;;;;;6332273;22;19999;-74
2021/01/12 05:08:06;;;;;;;20.65;10.93;;;;;;;;;;6332337;22;20030;-74
2021/01/12 05:10:35;;;;;;;17.92;9.20;;;;;;;;;;6331425;22;20027;-74
2021/01/12 05:13:01;;;;;;;19.10;10.60;;;;;;;;;;6329404;22;20006;-74
2021/01/12 05:15:31;;;;;;;19.80;10.75;;;;;;;;;;6330683;22;20019;-74
2021/01/12 05:17:57;;;;;;;18.05;8.93;;;;;;;;;;6329257;22;20007;-74
2021/01/12 05:20:25;;;;;;;18.27;9.85;;;;;;;;;;6330105;22;20461;-74
2021/01/12 05:23:07;;;;;;;17.33;9.00;;;;;;;;;;6331121;22;20072;-74
2021/01/12 05:25:36;;;;;;;18.63;10.32;;;;;;;;;;6331537;22;20377;-74
2021/01/12 05:28:03;;;;;;;20.13;10.07;;;;;;;;;;6330518;22;20026;-74
2021/01/12 05:30:29;;;;;;;22.23;11.30;;;;;;;;;;6330629;22;20045;-73
2021/01/12 05:32:56;;;;;;;20.98;11.60;;;;;;;;;;6330735;22;20007;-74
2021/01/12 05:35:25;;;;;;;18.35;9.48;;;;;;;;;;6331540;22;20438;-73
2021/01/12 05:37:55;;;;;;;21.65;10.63;;;;;;;;;;6302643;22;20440;-74
2021/01/12 05:40:22;;;;;;;24.33;12.02;;;;;;;;;;6329771;22;19995;-74
2021/01/12 05:42:48;;;;;;;23.63;12.38;;;;;;;;;;6303367;22;20023;-74
2021/01/12 05:45:14;;;;;;;21.83;10.60;;;;;;;;;;6331319;22;19998;-74
2021/01/12 05:47:40;;;;;;;17.05;8.68;;;;;;;;;;6331215;22;20026;-74
2021/01/12 05:50:09;;;;;;;17.17;8.90;;;;;;;;;;6304161;22;20010;-74
2021/01/12 05:52:54;;;;;;;20.13;10.60;;;;;;;;;;6330822;22;20006;-74
2021/01/12 05:55:21;;;;;;;20.20;11.10;;;;;;;;;;6331633;22;20028;-74
2021/01/12 05:57:53;;;;;;;20.38;9.95;;;;;;;;;;6304640;22;20005;-74
2021/01/12 06:00:20;;;;;;;14.27;8.15;;;;;;;;;;6304263;22;20003;-74
2021/01/12 06:02:46;;;;;;;16.45;8.80;;;;;;;;;;6303099;22;20007;-74
2021/01/12 06:05:13;;;;;;;19.27;9.80;;;;;;;;;;6304603;22;20007;-74
2021/01/12 06:07:39;;;;;;;15.90;8.48;;;;;;;;;;6331231;22;20033;-74
2021/01/12 06:10:07;;;;;;;16.13;8.20;;;;;;;;;;6303709;22;20006;-74
2021/01/12 06:12:35;;;;;;;14.82;7.68;;;;;;;;;;6303193;22;20007;-74
2021/01/12 06:15:04;;;;;;;13.85;7.50;;;;;;;;;;6304069;22;20064;-74
2021/01/12 06:17:35;;;;;;;18.38;9.63;;;;;;;;;;6303342;22;20014;-74
2021/01/12 06:20:07;;;;;;;18.15;8.80;;;;;;;;;;6331752;22;20331;-74
2021/01/12 06:22:38;;;;;;;15.25;7.50;;;;;;;;;;6303074;22;20446;-73
2021/01/12 06:25:06;;;;;;;15.73;8.75;;;;;;;;;;6303727;22;20067;-74
2021/01/12 06:27:33;;;;;;;19.88;8.23;;;;;;;;;;6303659;22;20009;-74
2021/01/12 06:30:04;;;;;;;18.05;8.93;;;;;;;;;;6331609;22;20302;-74
2021/01/12 06:32:31;;;;;;;18.67;9.52;;;;;;;;;;6330181;22;20564;-74
2021/01/12 06:34:58;;;;;;;15.75;8.93;;;;;;;;;;6331207;22;20029;-74
2021/01/12 06:37:25;;;;;;;16.25;8.90;;;;;;;;;;6303680;22;20006;-74
2021/01/12 06:39:51;;;;;;;15.02;6.68;;;;;;;;;;6303247;22;20003;-74
2021/01/12 06:42:20;;;;;;;16.75;8.27;;;;;;;;;;6330585;22;20017;-73
2021/01/12 06:44:48;;;;;;;14.60;7.13;;;;;;;;;;6331732;22;19999;-73
2021/01/12 06:47:14;;;;;;;12.60;6.28;;;;;;;;;;6302974;22;20380;-74
2021/01/12 06:49:40;;;;;;;16.27;7.78;;;;;;;;;;6303547;22;20497;-74
2021/01/12 06:52:06;;;;;;;17.80;8.60;;;;;;;;;;6330363;22;20022;-74
2021/01/12 06:54:36;;;;;;;15.25;8.60;;;;;;;;;;6331166;22;20007;-74
2021/01/12 06:57:03;;;;;;;16.30;9.15;;;;;;;;;;6303167;22;19994;-74
2021/01/12 06:59:36;;;;;;;14.43;8.68;;;;;;;;;;6331848;22;20003;-73
2021/01/12 07:02:06;;;;;;;15.90;9.02;;;;;;;;;;6302538;22;20013;-74
2021/01/12 07:04:32;;;;;;;15.90;8.35;;;;;;;;;;6303968;22;20377;-74
2021/01/12 07:06:58;;;;;;;12.38;6.93;;;;;;;;;;6303782;22;20481;-74
2021/01/12 07:09:26;;;;;;;15.52;8.13;;;;;;;;;;6303331;22;20330;-74
2021/01/12 07:12:02;;;;;;;17.52;9.32;;;;;;;;;;6330296;22;20503;-74
2021/01/12 07:14:28;;;;;;;14.68;7.18;;;;;;;;;;6331504;22;20003;-74
2021/01/12 07:17:05;;;;;;;15.32;8.32;;;;;;;;;;6330599;22;20433;-74
2021/01/12 07:19:33;;;;;;;15.50;8.77;;;;;;;;;;6303394;22;20010;-73
2021/01/12 07:22:25;;;;;;;16.83;9.57;;;;;;;;;;6329820;22;20599;-73
2021/01/12 07:24:53;;;;;;;14.88;8.50;;;;;;;;;;6324501;22;20014;-74
2021/01/12 07:27:20;;;;;;;15.90;9.13;;;;;;;;;;6331361;22;20003;-74
2021/01/12 07:29:50;;;;;;;16.83;8.65;;;;;;;;;;6303193;22;20011;-74
2021/01/12 07:32:25;;;;;;;16.13;8.57;;;;;;;;;;6330488;22;20067;-73
2021/01/12 07:34:51;;;;;;;12.82;7.22;;;;;;;;;;6330453;22;20561;-74
2021/01/12 07:37:18;;;;;;;17.42;8.18;;;;;;;;;;6330951;22;20003;-74
2021/01/12 07:39:44;;;;;;;17.92;9.45;;;;;;;;;;6331123;22;20029;-74
2021/01/12 07:42:11;;;;;;;18.07;9.00;;;;;;;;;;6303518;22;19995;-74
2021/01/12 07:44:37;;;;;;;15.75;8.50;;;;;;;;;;6332555;22;20024;-74
2021/01/12 07:47:05;;;;;;;13.32;6.25;;;;;;;;;;6332849;22;20439;-73
2021/01/12 07:49:31;;;;;;;17.33;7.70;;;;;;;;;;6304762;22;20028;-74
2021/01/12 07:51:57;;;;;;;15.90;9.57;;;;;;;;;;6332141;22;20082;-74
2021/01/12 07:54:24;;;;;;;12.65;5.80;;;;;;;;;;6305684;22;20060;-73
2021/01/12 07:56:51;;;;;;;15.80;9.45;;;;;;;;;;6305859;22;20096;-73
2021/01/12 07:59:18;;;;;;;16.08;8.45;;;;;;;;;;6305643;22;20132;-73
2021/01/12 08:01:44;;;;;;;16.48;8.32;;;;;;;;;;6304378;22;19999;-74
2021/01/12 08:04:13;;;;;;;15.50;8.73;;;;;;;;;;6305625;22;20038;-74
2021/01/12 08:06:42;;;;;;;19.52;10.55;;;;;;;;;;6305044;22;20053;-74
2021/01/12 08:09:09;;;;;;;17.52;9.80;;;;;;;;;;6304973;22;20180;-74
2021/01/12 08:11:36;;;;;;;17.73;8.75;;;;;;;;;;6331949;22;19999;-73
2021/01/12 08:14:06;;;;;;;17.50;8.90;;;;;;;;;;6331253;22;20003;-74
2021/01/12 08:16:33;;;;;;;16.65;9.07;;;;;;;;;;6304508;22;20009;-73
2021/01/12 08:19:00;;;;;;;17.63;9.80;;;;;;;;;;6305059;22;20086;-74
2021/01/12 08:21:26;;;;;;;19.00;10.13;;;;;;;;;;6330912;22;19995;-74
2021/01/12 08:24:01;;;;;;;15.95;9.75;;;;;;;;;;6305123;22;20015;-74
2021/01/12 08:26:27;;;;;;;17.52;8.88;;;;;;;;;;6304680;22;20061;-73
2021/01/12 08:28:54;;;;;;;17.85;9.50;;;;;;;;;;6332255;22;20435;-74
2021/01/12 08:31:20;;;;;;;15.85;7.53;;;;;;;;;;6303702;22;20006;-74
2021/01/12 08:33:46;;;;;;;16.92;8.20;;;;;;;;;;6307314;22;20032;-73
2021/01/12 08:36:16;;;;;;;17.13;8.37;;;;;;;;;;6333422;22;20636;-75
2021/01/12 08:38:43;;;;;;;17.08;9.75;;;;;;;;;;6332841;22;20005;-74
2021/01/12 08:41:09;;;;;;;14.18;7.47;;;;;;;;;;6330783;22;19995;-73
2021/01/12 08:43:36;;;;;;;17.02;7.72;;;;;;;;;;6333512;22;19991;-73
2021/01/12 08:46:03;;;;;;;16.53;8.00;;;;;;;;;;6332941;22;20002;-73
2021/01/12 08:48:29;;;;;;;11.02;5.70;;;;;;;;;;6331283;22;20037;-76
2021/01/12 08:50:55;;;;;;;17.23;8.35;;;;;;;;;;6332152;22;19994;-73
2021/01/12 08:53:31;;;;;;;14.00;6.55;;;;;;;;;;6330560;22;20013;-73
2021/01/12 08:56:07;;;;;;;10.43;5.93;;;;;;;;;;6331525;22;20003;-73
2021/01/12 08:58:33;;;;;;;15.82;8.48;;;;;;;;;;6331065;22;19999;-73
2021/01/12 09:01:00;;;;;;;14.05;6.70;;;;;;;;;;6330066;22;19999;-74
2021/01/12 09:03:27;;;;;;;14.85;7.20;;;;;;;;;;6331388;22;20009;-73
2021/01/12 09:05:53;;;;;;;15.65;8.43;;;;;;;;;;6330983;22;20082;-73
2021/01/12 09:08:23;;;;;;;16.58;8.68;;;;;;;;;;6331269;22;20006;-73
2021/01/12 09:10:49;;;;;;;13.27;7.25;;;;;;;;;;6329930;22;19997;-74
2021/01/12 09:13:15;;;;;;;14.10;7.10;;;;;;;;;;6332176;22;20450;-74
2021/01/12 09:15:43;;;;;;;14.40;8.15;;;;;;;;;;6330952;22;20007;-74
2021/01/12 09:18:23;;;;;;;13.30;6.63;;;;;;;;;;6330521;22;19998;-74
2021/01/12 09:20:53;;;;;;;15.27;7.25;;;;;;;;;;6330220;22;20211;-74
2021/01/12 09:23:19;;;;;;;15.32;7.95;;;;;;;;;;6333018;22;19995;-74
2021/01/12 09:25:53;;;;;;;15.23;6.90;;;;;;;;;;6330918;22;20007;-74
2021/01/12 09:28:20;;;;;;;14.23;7.85;;;;;;;;;;6330505;22;20003;-74
2021/01/12 09:30:47;;;;;;;14.50;8.48;;;;;;;;;;6330654;22;20033;-74
2021/01/12 09:33:23;;;;;;;15.20;8.13;;;;;;;;;;6330494;22;20056;-74
2021/01/12 09:36:00;;;;;;;13.00;7.45;;;;;;;;;;6330784;22;20007;-74
2021/01/12 09:38:34;;;;;;;14.55;7.45;;;;;;;;;;6333031;22;20014;-74
2021/01/12 09:41:00;;;;;;;14.88;8.20;;;;;;;;;;6331705;22;20822;-74
2021/01/12 09:43:26;;;;;;;14.35;7.35;;;;;;;;;;6332267;22;20002;-75
2021/01/12 09:45:52;;;;;;;12.10;6.30;;;;;;;;;;6331031;22;20516;-78
2021/01/12 09:48:18;;;;;;;9.73;5.38;;;;;;;;;;6330375;22;19995;-74
2021/01/12 09:50:44;;;;;;;22.08;11.43;;;;;;;;;;6331618;22;20341;-74
2021/01/12 09:53:10;;;;;;;9.10;5.13;;;;;;;;;;6330802;22;19995;-74
2021/01/12 09:55:36;;;;;;;3.38;1.90;;;;;;;;;;6332451;22;20009;-74
2021/01/12 09:58:02;;;;;;;3.47;1.98;;;;;;;;;;6330242;22;20030;-74
2021/01/12 10:00:28;;;;;;;3.53;2.20;;;;;;;;;;6330488;22;20445;-74
2021/01/12 10:02:54;;;;;;;3.47;1.75;;;;;;;;;;6330144;22;19999;-73
2021/01/12 10:05:20;;;;;;;2.33;1.58;;;;;;;;;;6329978;22;20015;-74
2021/01/12 10:07:46;;;;;;;3.47;1.85;;;;;;;;;;6331050;22;20002;-74
2021/01/12 10:10:13;;;;;;;3.65;1.60;;;;;;;;;;6330966;22;20010;-75
2021/01/12 10:12:39;;;;;;;3.33;1.67;;;;;;;;;;6329389;22;20013;-74
2021/01/12 10:15:05;;;;;;;3.70;1.92;;;;;;;;;;6328676;22;20090;-74
2021/01/12 10:17:31;;;;;;;10.27;1.65;;;;;;;;;;6331055;22;20002;-74
2021/01/12 10:19:57;;;;;;;2.88;1.60;;;;;;;;;;6329940;22;20323;-74
2021/01/12 10:22:23;;;;;;;4.68;1.40;;;;;;;;;;6329177;22;19999;-74
2021/01/12 10:24:50;;;;;;;2.47;1.27;;;;;;;;;;6330743;22;20006;-74
2021/01/12 10:27:17;;;;;;;3.03;1.77;;;;;;;;;;6329149;22;20030;-75
2021/01/12 10:29:43;;;;;;;2.38;1.33;;;;;;;;;;6330465;22;20011;-74
2021/01/12 10:32:12;;;;;;;2.65;1.38;;;;;;;;;;6331191;22;20030;-74
2021/01/12 10:34:38;;;;;;;3.33;1.25;;;;;;;;;;6330476;22;20010;-74
2021/01/12 10:37:04;;;;;;;2.55;1.35;;;;;;;;;;6332073;22;20372;-73
2021/01/12 10:39:30;;;;;;;2.20;1.10;;;;;;;;;;6331541;22;20304;-74
2021/01/12 10:41:56;;;;;;;1.52;0.85;;;;;;;;;;6329289;22;19999;-73
2021/01/12 10:44:23;;;;;;;5.53;1.50;;;;;;;;;;6331456;22;20062;-73
2021/01/12 10:46:56;;;;;;;2.55;0.95;;;;;;;;;;6331818;22;20056;-73
2021/01/12 10:49:22;;;;;;;2.05;1.10;;;;;;;;;;6330023;22;20101;-74
2021/01/12 10:51:56;;;;;;;2.95;1.17;;;;;;;;;;6330782;22;19999;-72
2021/01/12 10:54:22;;;;;;;3.22;1.15;;;;;;;;;;6327876;22;20187;-77
2021/01/12 10:56:48;;;;;;;6.88;1.40;;;;;;;;;;6324389;22;20700;-73
2021/01/12 10:59:14;;;;;;;6.45;1.40;;;;;;;;;;6330101;22;20093;-78
2021/01/12 11:01:40;;;;;;;3.78;1.20;;;;;;;;;;6331238;22;20026;-77
2021/01/12 11:04:06;;;;;;;5.53;2.28;;;;;;;;;;6331609;22;20328;-79
2021/01/12 11:06:36;;;;;;;5.40;2.13;;;;;;;;;;6330292;22;20007;-79
2021/01/12 11:09:03;;;;;;;3.03;1.60;;;;;;;;;;6330767;22;20352;-73
2021/01/12 11:11:34;;;;;;;7.60;2.20;;;;;;;;;;6327632;22;20105;-73
2021/01/12 11:14:03;;;;;;;4.03;1.60;;;;;;;;;;6331693;22;20245;-76
2021/01/12 11:16:41;;;;;;;7.10;2.40;;;;;;;;;;6332002;22;20009;-74
2021/01/12 11:19:08;;;;;;;5.45;1.70;;;;;;;;;;6329589;22;19999;-75
2021/01/12 11:21:44;;;;;;;3.65;1.80;;;;;;;;;;6331053;22;20026;-75
2021/01/12 11:24:13;;;;;;;2.90;1.20;;;;;;;;;;6330699;22;20036;-74
2021/01/12 11:26:43;;;;;;;2.45;1.30;;;;;;;;;;6331699;22;20392;-76
2021/01/12 11:29:10;;;;;;;2.92;1.20;;;;;;;;;;6330463;22;20097;-74
2021/01/12 11:31:37;;;;;;;1.63;1.00;;;;;;;;;;6329547;22;20002;-73
2021/01/12 11:34:03;;;;;;;5.57;1.05;;;;;;;;;;6330041;22;20009;-74
2021/01/12 11:36:39;;;;;;;4.40;0.90;;;;;;;;;;6331663;22;20007;-75
2021/01/12 11:39:05;;;;;;;2.58;0.90;;;;;;;;;;6304789;22;20010;-75
2021/01/12 11:41:31;;;;;;;3.88;1.17;;;;;;;;;;6302822;22;20642;-74
2021/01/12 11:43:57;;;;;;;4.03;1.40;;;;;;;;;;6303627;22;20010;-75
2021/01/12 11:46:30;;;;;;;1.60;1.02;;;;;;;;;;6303886;22;20063;-74
2021/01/12 11:48:57;;;;;;;3.25;1.10;;;;;;;;;;6303275;22;20371;-74
2021/01/12 11:51:23;;;;;;;2.30;1.23;;;;;;;;;;6331578;22;19998;-78
2021/01/12 11:53:53;;;;;;;4.32;1.20;;;;;;;;;;6305722;22;20007;-80
2021/01/12 11:56:19;;;;;;;4.82;1.65;;;;;;;;;;6306660;22;19999;-81
2021/01/12 11:58:45;;;;;;;6.55;1.25;;;;;;;;;;6307274;22;20011;-82
2021/01/12 12:01:12;;;;;;;7.30;1.20;;;;;;;;;;6306446;22;20090;-82
2021/01/12 12:03:39;;;;;;;2.47;1.10;;;;;;;;;;6306760;22;20022;-83
2021/01/12 12:06:05;;;;;;;1.45;0.88;;;;;;;;;;6307843;22;20007;-83
2021/01/12 12:08:31;;;;;;;2.92;1.20;;;;;;;;;;6307260;22;20481;-85
2021/01/12 12:11:01;;;;;;;1.67;0.90;;;;;;;;;;6306206;22;19998;-85
2021/01/12 12:13:30;;;;;;;3.20;1.50;;;;;;;;;;6310009;22;20010;-84
2021/01/12 12:15:57;;;;;;;1.98;0.80;;;;;;;;;;6310436;22;20003;-84
2021/01/12 12:18:23;;;;;;;2.78;1.10;;;;;;;;;;6310027;22;19999;-83
2021/01/12 12:20:49;;;;;;;3.03;0.90;;;;;;;;;;6308729;22;20053;-84
2021/01/12 12:23:16;;;;;;;2.03;0.95;;;;;;;;;;6308973;22;20056;-85
2021/01/12 12:33:22;;;;;;;2.28;1.20;;;;;;;;;;6338344;22;20439;-79
2021/01/12 12:35:55;;;;;;;2.13;0.95;;;;;;;;;;6312281;22;20007;-82
2021/01/12 12:38:21;;;;;;;7.60;1.95;;;;;;;;;;6312460;22;20090;-84
2021/01/12 12:40:47;;;;;;;27.55;10.77;;;;;;;;;;6311306;22;20003;-84
2021/01/12 12:43:13;;;;;;;3.42;1.00;;;;;;;;;;6280794;22;20007;-83
2021/01/12 12:45:42;;;;;;;5.85;1.98;;;;;;;;;;6280621;22;20452;-84
2021/01/12 12:48:08;;;;;;;2.83;1.00;;;;;;;;;;6280598;22;20008;-82
2021/01/12 12:50:34;;;;;;;4.38;1.27;;;;;;;;;;6279546;22;19996;-83
2021/01/12 12:53:01;;;;;;;2.40;1.17;;;;;;;;;;6279023;22;20006;-81
2021/01/12 12:55:27;;;;;;;3.40;1.30;;;;;;;;;;6279255;22;20045;-83
2021/01/12 12:57:54;;;;;;;3.15;1.30;;;;;;;;;;6277927;22;20007;-81
2021/01/12 13:00:20;;;;;;;2.25;1.50;;;;;;;;;;6277690;22;20010;-81
2021/01/12 13:02:46;;;;;;;3.45;1.23;;;;;;;;;;6275955;22;20387;-79
2021/01/12 13:05:12;;;;;;;2.17;1.10;;;;;;;;;;6275770;22;20034;-77
2021/01/12 13:07:38;;;;;;;2.60;1.23;;;;;;;;;;6275756;22;20006;-79
2021/01/12 13:10:05;;;;;;;4.45;1.17;;;;;;;;;;6303155;22;19999;-76
2021/01/12 13:12:31;;;;;;;3.40;1.10;;;;;;;;;;6274059;22;20035;-75
2021/01/12 13:14:57;;;;;;;0.77;0.60;;;;;;;;;;6274340;22;19995;-74
2021/01/12 13:17:26;;;;;;;2.20;0.80;;;;;;;;;;6274029;22;20467;-73
2021/01/12 13:19:54;;;;;;;7.57;5.05;;;;;;;;;;6301693;22;19996;-74
2021/01/12 13:22:20;;;;;;;3.65;1.67;;;;;;;;;;6273776;22;20076;-78
2021/01/12 13:24:46;;;;;;;7.00;2.80;;;;;;;;;;6301461;22;20027;-73
2021/01/12 13:27:13;;;;;;;1.75;1.15;;;;;;;;;;6301831;22;20002;-77
2021/01/12 13:29:39;;;;;;;3.30;1.25;;;;;;;;;;6274089;22;20382;-74
2021/01/12 13:32:09;;;;;;;3.85;1.58;;;;;;;;;;6299651;22;20329;-74
2021/01/12 13:34:35;;;;;;;2.88;1.17;;;;;;;;;;6301668;22;20049;-74
2021/01/12 13:37:01;;;;;;;2.63;1.00;;;;;;;;;;6301132;22;19999;-74
2021/01/12 13:39:27;;;;;;;1.30;0.80;;;;;;;;;;6272907;22;20331;-74
2021/01/12 13:41:53;;;;;;;1.17;0.80;;;;;;;;;;6299971;22;20007;-74
2021/01/12 13:44:19;;;;;;;0.82;0.70;;;;;;;;;;6300680;22;20086;-74
2021/01/12 13:46:46;;;;;;;1.83;0.80;;;;;;;;;;6272876;22;20034;-74
2021/01/12 13:49:12;;;;;;;2.53;0.68;;;;;;;;;;6273338;22;20082;-74
2021/01/12 13:51:39;;;;;;;2.85;0.90;;;;;;;;;;6299701;22;20000;-74
2021/01/12 13:54:05;;;;;;;0.95;0.65;;;;;;;;;;6272891;22;20007;-74
2021/01/12 13:56:36;;;;;;;1.23;0.80;;;;;;;;;;6273164;22;20060;-74
2021/01/12 13:59:03;;;;;;;2.08;0.73;;;;;;;;;;6273237;22;20022;-74
2021/01/12 14:01:30;;;;;;;4.75;0.77;;;;;;;;;;6272099;22;20030;-74
2021/01/12 14:03:56;;;;;;;1.20;0.87;;;;;;;;;;6273348;22;20044;-75
2021/01/12 14:06:25;;;;;;;3.20;1.40;;;;;;;;;;6273312;22;19999;-74
2021/01/12 14:08:52;;;;;;;1.77;0.82;;;;;;;;;;6300665;22;20003;-74
2021/01/12 14:11:18;;;;;;;5.65;0.85;;;;;;;;;;6272005;22;20006;-74
2021/01/12 14:13:44;;;;;;;1.40;0.80;;;;;;;;;;6272516;22;20004;-75
2021/01/12 14:16:10;;;;;;;0.95;0.60;;;;;;;;;;6299995;22;20006;-74
2021/01/12 14:18:36;;;;;;;2.35;0.80;;;;;;;;;;6272594;22;19997;-75
2021/01/12 14:21:03;;;;;;;1.73;0.52;;;;;;;;;;6271413;22;20007;-74
2021/01/12 14:23:29;;;;;;;1.30;0.57;;;;;;;;;;6300258;22;20003;-74
2021/01/12 14:25:55;;;;;;;4.53;0.80;;;;;;;;;;6300120;22;20027;-74
2021/01/12 14:28:23;;;;;;;1.25;0.80;;;;;;;;;;6273106;22;20014;-73
2021/01/12 14:30:49;;;;;;;1.15;0.73;;;;;;;;;;6272367;22;20027;-74
2021/01/12 14:33:15;;;;;;;1.60;0.50;;;;;;;;;;6271948;22;20018;-74
2021/01/12 14:35:41;;;;;;;0.57;0.43;;;;;;;;;;6272908;22;20016;-74
2021/01/12 14:38:11;;;;;;;1.08;0.70;;;;;;;;;;6300849;22;20003;-74
2021/01/12 14:40:41;;;;;;;2.17;0.80;;;;;;;;;;6300259;22;20003;-74
2021/01/12 14:43:08;;;;;;;5.82;1.13;;;;;;;;;;6299771;22;19999;-75